createdAt,value
2022-08-23T00:02:02.652Z,20.38
2022-08-23T00:04:53.309Z,20.39
2022-08-23T00:07:29.822Z,20.42
2022-08-23T00:09:57.096Z,20.41
2022-08-23T00:12:25.994Z,20.44
2022-08-23T00:14:55.220Z,20.45
2022-08-23T00:17:33.576Z,20.47
2022-08-23T00:20:07.788Z,20.49
2022-08-23T00:22:36.594Z,20.54
2022-08-23T00:25:06.890Z,20.57
2022-08-23T00:27:34.856Z,20.60
2022-08-23T00:30:06.443Z,20.63
2022-08-23T00:32:38.206Z,20.64
2022-08-23T00:35:09.479Z,20.66
2022-08-23T00:37:37.910Z,20.62
2022-08-23T00:40:11.503Z,20.56
2022-08-23T00:43:11.652Z,20.48
2022-08-23T00:46:07.183Z,20.45
2022-08-23T00:48:37.027Z,20.42
2022-08-23T00:51:27.593Z,20.40
2022-08-23T00:53:59.664Z,20.31
2022-08-23T00:56:30.012Z,20.33
2022-08-23T00:58:58.141Z,20.33
2022-08-23T01:01:26.864Z,20.37
2022-08-23T01:04:04.758Z,20.30
2022-08-23T01:06:39.634Z,20.32
2022-08-23T01:09:15.456Z,20.30
2022-08-23T01:12:06.434Z,20.29
2022-08-23T01:14:56.031Z,20.20
2022-08-23T01:17:46.005Z,20.20
2022-08-23T01:20:21.697Z,20.14
2022-08-23T01:23:05.037Z,20.10
2022-08-23T01:25:34.163Z,20.09
2022-08-23T01:28:01.552Z,20.13
2022-08-23T01:30:32.355Z,20.13
2022-08-23T01:33:04.249Z,20.13
2022-08-23T01:35:41.746Z,20.15
2022-08-23T01:38:11.729Z,20.20
2022-08-23T01:40:42.177Z,20.17
2022-08-23T01:43:10.377Z,20.17
2022-08-23T01:45:37.834Z,20.21
2022-08-23T01:48:08.581Z,20.19
2022-08-23T01:50:39.022Z,20.20
2022-08-23T01:53:07.582Z,20.17
2022-08-23T01:55:36.338Z,20.17
2022-08-23T01:58:05.645Z,20.15
2022-08-23T02:00:40.920Z,20.11
2022-08-23T02:03:09.686Z,19.96
2022-08-23T02:05:37.757Z,19.93
2022-08-23T02:08:25.592Z,19.95
2022-08-23T02:10:54.683Z,19.90
2022-08-23T02:13:22.277Z,19.85
2022-08-23T02:15:51.550Z,19.84
2022-08-23T02:18:20.736Z,19.84
2022-08-23T02:20:51.203Z,19.82
2022-08-23T02:23:20.274Z,19.79
2022-08-23T02:25:48.003Z,19.73
2022-08-23T02:28:15.648Z,19.73
2022-08-23T02:30:45.785Z,19.76
2022-08-23T02:33:14.294Z,19.80
2022-08-23T02:35:44.181Z,19.78
2022-08-23T02:38:12.741Z,19.80
2022-08-23T02:40:41.995Z,19.84
2022-08-23T02:43:10.263Z,19.83
2022-08-23T02:45:38.506Z,19.84
2022-08-23T02:48:08.008Z,19.87
2022-08-23T02:50:42.417Z,19.86
2022-08-23T02:53:09.857Z,19.81
2022-08-23T02:55:38.300Z,19.78
2022-08-23T02:58:05.573Z,19.73
2022-08-23T03:00:32.820Z,19.76
2022-08-23T03:03:00.170Z,19.68
2022-08-23T03:05:27.372Z,19.67
2022-08-23T03:07:54.580Z,19.65
2022-08-23T03:10:22.579Z,19.69
2022-08-23T03:12:54.861Z,19.71
2022-08-23T03:15:23.134Z,19.77
2022-08-23T03:17:53.465Z,19.81
2022-08-23T03:20:22.020Z,19.83
2022-08-23T03:22:54.748Z,19.85
2022-08-23T03:25:23.819Z,19.87
2022-08-23T03:28:08.608Z,19.92
2022-08-23T03:30:38.187Z,19.97
2022-08-23T03:33:06.003Z,19.98
2022-08-23T03:35:33.289Z,19.95
2022-08-23T03:38:01.542Z,19.91
2022-08-23T03:40:29.085Z,19.92
2022-08-23T03:42:56.312Z,19.90
2022-08-23T03:45:25.124Z,19.94
2022-08-23T03:47:53.425Z,19.98
2022-08-23T03:50:21.207Z,20.05
2022-08-23T03:52:48.518Z,20.08
2022-08-23T03:55:16.859Z,20.08
2022-08-23T03:57:45.951Z,20.10
2022-08-23T04:00:20.406Z,20.15
2022-08-23T04:02:49.635Z,20.25
2022-08-23T04:05:17.649Z,20.26
2022-08-23T04:07:50.973Z,20.17
2022-08-23T04:10:20.596Z,20.14
2022-08-23T04:12:50.156Z,20.10
2022-08-23T04:15:19.117Z,20.16
2022-08-23T04:17:47.956Z,20.21
2022-08-23T04:20:17.601Z,20.27
2022-08-23T04:23:04.666Z,20.35
2022-08-23T04:25:45.229Z,20.43
2022-08-23T04:28:12.580Z,20.39
2022-08-23T04:30:39.889Z,20.41
2022-08-23T04:33:11.245Z,20.42
2022-08-23T04:35:41.079Z,20.50
2022-08-23T04:38:24.066Z,20.54
2022-08-23T04:41:13.384Z,20.65
2022-08-23T04:43:43.471Z,20.77
2022-08-23T04:46:16.628Z,20.86
2022-08-23T04:48:46.465Z,20.86
2022-08-23T04:51:16.237Z,20.88
2022-08-23T04:53:47.464Z,20.90
2022-08-23T04:56:34.295Z,20.94
2022-08-23T04:59:02.590Z,20.99
2022-08-23T05:01:30.284Z,21.07
2022-08-23T05:03:57.627Z,21.08
2022-08-23T05:06:27.404Z,21.10
2022-08-23T05:08:55.105Z,21.12
2022-08-23T05:11:23.386Z,21.16
2022-08-23T05:13:51.134Z,21.20
2022-08-23T05:16:21.925Z,21.26
2022-08-23T05:18:56.932Z,21.31
2022-08-23T05:21:25.146Z,21.38
2022-08-23T05:23:54.844Z,21.48
2022-08-23T05:26:23.966Z,21.57
2022-08-23T05:28:51.252Z,21.68
2022-08-23T05:31:24.351Z,21.76
2022-08-23T05:33:56.969Z,21.78
2022-08-23T05:36:29.921Z,21.78
2022-08-23T05:38:57.172Z,21.83
2022-08-23T05:41:38.447Z,21.89
2022-08-23T05:44:10.140Z,21.99
2022-08-23T05:46:41.747Z,22.03
2022-08-23T05:49:36.075Z,22.09
2022-08-23T05:52:11.283Z,22.09
2022-08-23T05:54:38.950Z,22.11
2022-08-23T05:57:59.855Z,22.13
2022-08-23T06:00:37.845Z,22.16
2022-08-23T06:03:06.684Z,22.15
2022-08-23T06:05:38.466Z,22.22
2022-08-23T06:08:05.735Z,22.21
2022-08-23T06:10:39.368Z,22.22
2022-08-23T06:13:43.035Z,22.27
2022-08-23T06:16:14.842Z,22.32
2022-08-23T06:18:44.948Z,22.40
2022-08-23T06:21:34.050Z,22.46
2022-08-23T06:24:02.611Z,22.55
2022-08-23T06:26:37.748Z,22.61
2022-08-23T06:29:10.001Z,22.67
2022-08-23T06:31:49.678Z,22.62
2022-08-23T06:34:33.296Z,22.69
2022-08-23T06:37:20.269Z,22.83
2022-08-23T06:40:41.310Z,22.99
2022-08-23T06:43:55.252Z,23.21
2022-08-23T06:46:33.787Z,23.25
2022-08-23T06:49:04.627Z,23.23
2022-08-23T06:51:40.035Z,23.36
2022-08-23T06:54:26.778Z,23.43
2022-08-23T06:56:58.465Z,23.46
2022-08-23T06:59:30.692Z,23.50
2022-08-23T07:02:50.629Z,23.56
2022-08-23T07:06:05.084Z,23.56
2022-08-23T07:08:35.201Z,23.64
2022-08-23T07:11:02.568Z,23.74
2022-08-23T07:13:29.837Z,23.82
2022-08-23T07:15:59.977Z,23.87
2022-08-23T07:18:27.786Z,23.90
2022-08-23T07:21:00.627Z,24.01
2022-08-23T07:23:39.268Z,24.04
2022-08-23T07:26:11.883Z,24.15
2022-08-23T07:28:41.122Z,24.27
2022-08-23T07:31:11.478Z,24.32
2022-08-23T07:33:44.689Z,24.35
2022-08-23T07:36:22.476Z,24.46
2022-08-23T07:38:51.635Z,24.50
2022-08-23T07:41:20.506Z,24.56
2022-08-23T07:43:48.503Z,24.63
2022-08-23T07:46:16.064Z,24.63
2022-08-23T07:48:53.865Z,24.70
2022-08-23T07:51:34.912Z,24.76
2022-08-23T07:54:06.422Z,24.82
2022-08-23T07:56:37.218Z,24.88
2022-08-23T07:59:20.737Z,24.98
2022-08-23T08:02:03.752Z,25.04
2022-08-23T08:04:31.537Z,24.94
2022-08-23T08:07:18.235Z,25.04
2022-08-23T08:09:49.451Z,25.19
2022-08-23T08:12:17.651Z,25.32
2022-08-23T08:14:50.487Z,25.53
2022-08-23T08:17:19.089Z,25.65
2022-08-23T08:20:09.852Z,25.73
2022-08-23T08:23:00.230Z,25.86
2022-08-23T08:25:46.354Z,25.92
2022-08-23T08:28:16.063Z,26.02
2022-08-23T08:30:43.701Z,26.18
2022-08-23T08:33:11.012Z,26.35
2022-08-23T08:35:38.562Z,26.50
2022-08-23T08:38:06.015Z,26.58
2022-08-23T08:40:39.731Z,26.53
2022-08-23T08:44:01.786Z,26.61
2022-08-23T08:46:45.638Z,26.66
2022-08-23T08:49:57.978Z,26.54
2022-08-23T08:52:49.141Z,26.56
2022-08-23T08:55:42.731Z,26.72
2022-08-23T08:58:18.942Z,26.78
2022-08-23T09:00:46.747Z,26.93
2022-08-23T09:03:21.704Z,26.93
2022-08-23T09:06:25.189Z,27.01
2022-08-23T09:10:06.638Z,27.13
2022-08-23T09:12:43.135Z,27.12
2022-08-23T09:15:41.441Z,26.98
2022-08-23T09:18:13.525Z,27.02
2022-08-23T09:20:43.139Z,27.05
2022-08-23T09:23:26.983Z,27.09
2022-08-23T09:26:03.765Z,27.04
2022-08-23T09:28:37.204Z,27.13
2022-08-23T09:31:08.227Z,27.26
2022-08-23T09:33:47.530Z,27.37
2022-08-23T09:36:41.416Z,27.43
2022-08-23T09:39:31.386Z,27.34
2022-08-23T09:42:04.745Z,27.42
2022-08-23T09:44:40.465Z,27.50
2022-08-23T09:47:15.280Z,27.62
2022-08-23T09:49:51.968Z,27.79
2022-08-23T09:52:37.155Z,27.98
2022-08-23T09:55:10.580Z,28.08
2022-08-23T09:57:47.602Z,28.19
2022-08-23T10:00:17.251Z,28.27
2022-08-23T10:02:46.422Z,28.33
2022-08-23T10:05:40.093Z,28.35
2022-08-23T10:08:22.890Z,28.29
2022-08-23T10:10:58.358Z,28.28
2022-08-23T10:13:31.817Z,28.19
2022-08-23T10:16:39.721Z,28.27
2022-08-23T10:19:38.446Z,28.24
2022-08-23T10:22:23.601Z,28.21
2022-08-23T10:25:36.902Z,28.25
2022-08-23T10:29:22.936Z,28.33
2022-08-23T10:32:21.584Z,28.46
2022-08-23T10:35:03.357Z,28.65
2022-08-23T10:37:43.527Z,28.79
2022-08-23T10:40:32.287Z,28.90
2022-08-23T10:43:25.297Z,28.99
2022-08-23T10:46:00.383Z,29.05
2022-08-23T10:49:00.411Z,29.19
2022-08-23T10:51:40.573Z,29.32
2022-08-23T10:54:46.175Z,29.39
2022-08-23T10:57:20.073Z,29.47
2022-08-23T10:59:50.631Z,29.47
2022-08-23T11:03:07.276Z,29.48
2022-08-23T11:05:38.691Z,29.56
2022-08-23T11:08:33.144Z,29.65
2022-08-23T11:11:02.725Z,29.81
2022-08-23T11:13:34.738Z,29.91
2022-08-23T11:16:15.240Z,29.96
2022-08-23T11:18:47.212Z,30.07
2022-08-23T11:21:17.492Z,30.10
2022-08-23T11:24:32.591Z,30.18
2022-08-23T11:27:06.633Z,30.20
2022-08-23T11:29:40.240Z,30.25
2022-08-23T11:32:42.337Z,30.15
2022-08-23T11:35:37.315Z,30.12
2022-08-23T11:38:11.623Z,30.15
2022-08-23T11:40:50.295Z,30.21
2022-08-23T11:43:41.456Z,30.28
2022-08-23T11:46:26.739Z,30.38
2022-08-23T11:49:39.473Z,30.35
2022-08-23T11:52:27.873Z,30.42
2022-08-23T11:55:20.756Z,30.46
2022-08-23T11:57:56.896Z,30.29
2022-08-23T12:01:06.812Z,30.31
2022-08-23T12:03:59.565Z,30.46
2022-08-23T12:06:41.747Z,30.67
2022-08-23T12:09:24.105Z,30.77
2022-08-23T12:11:57.312Z,30.86
2022-08-23T12:14:42.543Z,30.88
2022-08-23T12:17:12.571Z,30.87
2022-08-23T12:20:16.084Z,30.81
2022-08-23T12:23:01.919Z,30.73
2022-08-23T12:25:31.528Z,30.69
2022-08-23T12:28:30.943Z,30.60
2022-08-23T12:31:13.605Z,30.75
2022-08-23T12:33:57.330Z,30.87
2022-08-23T12:36:50.679Z,30.97
2022-08-23T12:39:38.994Z,31.11
2022-08-23T12:42:15.654Z,31.18
2022-08-23T12:45:11.625Z,31.22
2022-08-23T12:47:43.205Z,31.23
2022-08-23T12:50:13.278Z,31.33
2022-08-23T12:52:41.302Z,31.39
2022-08-23T12:55:48.153Z,31.37
2022-08-23T12:58:33.712Z,31.41
2022-08-23T13:01:22.296Z,31.51
2022-08-23T13:04:05.769Z,31.52
2022-08-23T13:06:45.569Z,31.46
2022-08-23T13:09:22.483Z,31.60
2022-08-23T13:12:14.233Z,31.59
2022-08-23T13:14:53.635Z,31.53
2022-08-23T13:17:30.395Z,31.55
2022-08-23T13:20:09.823Z,31.55
2022-08-23T13:22:39.317Z,31.54
2022-08-23T13:25:48.934Z,31.59
2022-08-23T13:28:28.697Z,31.65
2022-08-23T13:31:08.385Z,31.63
2022-08-23T13:33:36.907Z,31.63
2022-08-23T13:36:21.439Z,31.79
2022-08-23T13:38:49.536Z,31.89
2022-08-23T13:41:43.360Z,31.71
2022-08-23T13:44:18.410Z,31.62
2022-08-23T13:46:48.596Z,31.46
2022-08-23T13:49:27.811Z,31.52
2022-08-23T13:52:17.202Z,31.57
2022-08-23T13:54:58.247Z,31.64
2022-08-23T13:57:50.815Z,31.69
2022-08-23T14:00:58.590Z,31.64
2022-08-23T14:03:33.815Z,31.60
2022-08-23T14:06:11.094Z,31.55
2022-08-23T14:08:38.281Z,31.58
2022-08-23T14:11:08.560Z,31.57
2022-08-23T14:13:36.932Z,31.57
2022-08-23T14:23:11.415Z,31.74
2022-08-23T14:25:45.707Z,31.87
2022-08-23T14:28:13.117Z,31.86
2022-08-23T14:30:56.124Z,32.01
2022-08-23T14:33:31.401Z,32.07
2022-08-23T14:36:26.552Z,31.93
2022-08-23T14:39:07.675Z,31.86
2022-08-23T14:41:35.153Z,31.96
2022-08-23T14:44:36.017Z,31.81
2022-08-23T14:47:10.062Z,31.65
2022-08-23T14:49:49.021Z,31.62
2022-08-23T14:52:26.819Z,31.54
2022-08-23T14:55:13.159Z,31.46
2022-08-23T14:57:55.897Z,31.45
2022-08-23T15:00:26.766Z,31.42
2022-08-23T15:03:23.719Z,31.49
2022-08-23T15:05:51.107Z,31.58
2022-08-23T15:08:50.183Z,31.63
2022-08-23T15:14:30.631Z,31.68
2022-08-23T15:17:03.263Z,31.84
2022-08-23T15:19:40.865Z,31.94
2022-08-23T15:22:34.085Z,31.95
2022-08-23T15:25:18.982Z,31.88
2022-08-23T15:28:12.861Z,31.95
2022-08-23T15:30:52.764Z,31.76
2022-08-23T15:33:26.993Z,31.68
2022-08-23T15:36:19.850Z,31.67
2022-08-23T15:38:58.003Z,31.55
2022-08-23T15:41:33.344Z,31.47
2022-08-23T15:44:31.935Z,31.57
2022-08-23T15:47:28.383Z,31.65
2022-08-23T15:50:19.364Z,31.48
2022-08-23T15:53:01.334Z,31.44
2022-08-23T15:55:37.677Z,31.58
2022-08-23T15:58:27.622Z,31.59
2022-08-23T16:01:27.809Z,31.60
2022-08-23T16:04:15.015Z,31.53
2022-08-23T16:06:47.493Z,31.47
2022-08-23T16:09:48.231Z,31.42
2022-08-23T16:12:27.317Z,31.36
2022-08-23T16:14:55.011Z,31.29
2022-08-23T16:17:30.844Z,31.22
2022-08-23T16:20:04.707Z,31.12
2022-08-23T16:23:13.636Z,31.12
2022-08-23T16:26:01.166Z,31.04
2022-08-23T16:28:35.232Z,31.02
2022-08-23T16:31:38.915Z,30.89
2022-08-23T16:35:02.691Z,30.75
2022-08-23T16:37:49.768Z,30.64
2022-08-23T16:40:17.621Z,30.49
2022-08-23T16:42:44.838Z,30.39
2022-08-23T16:45:12.744Z,30.31
2022-08-23T16:47:43.742Z,30.22
2022-08-23T16:50:13.517Z,30.14
2022-08-23T16:52:41.233Z,30.07
2022-08-23T16:55:11.182Z,29.99
2022-08-23T16:57:39.775Z,29.93
2022-08-23T17:00:12.773Z,29.85
2022-08-23T17:02:41.490Z,29.78
2022-08-23T17:05:13.191Z,29.72
2022-08-23T17:07:40.924Z,29.66
2022-08-23T17:10:11.787Z,29.59
2022-08-23T17:12:45.312Z,29.53
2022-08-23T17:15:30.170Z,29.46
2022-08-23T17:18:00.846Z,29.38
2022-08-23T17:20:31.749Z,29.31
2022-08-23T17:22:59.163Z,29.25
2022-08-23T17:25:26.806Z,29.18
2022-08-23T17:27:55.942Z,29.14
2022-08-23T17:30:25.403Z,29.07
2022-08-23T17:33:08.960Z,28.99
2022-08-23T17:35:59.963Z,28.96
2022-08-23T17:38:46.396Z,28.90
2022-08-23T17:41:27.941Z,28.84
2022-08-23T17:44:13.950Z,28.77
2022-08-23T17:46:56.259Z,28.69
2022-08-23T17:49:24.688Z,28.62
2022-08-23T17:52:48.601Z,28.56
2022-08-23T17:55:19.978Z,28.47
2022-08-23T17:57:48.747Z,28.39
2022-08-23T18:00:18.951Z,28.32
2022-08-23T18:02:47.089Z,28.27
2022-08-23T18:05:15.292Z,28.19
2022-08-23T18:07:42.594Z,28.11
2022-08-23T18:10:11.975Z,28.06
2022-08-23T18:12:40.216Z,28.01
2022-08-23T18:15:08.618Z,27.96
2022-08-23T18:17:38.337Z,27.91
2022-08-23T18:20:12.630Z,27.82
2022-08-23T18:22:43.886Z,27.73
2022-08-23T18:25:14.668Z,27.62
2022-08-23T18:28:06.131Z,27.52
2022-08-23T18:30:44.142Z,27.38
2022-08-23T18:33:13.429Z,27.27
2022-08-23T18:35:42.221Z,27.19
2022-08-23T18:38:14.311Z,27.12
2022-08-23T18:40:46.818Z,27.06
2022-08-23T18:43:16.710Z,27.02
2022-08-23T18:45:47.124Z,26.97
2022-08-23T18:48:15.039Z,26.96
2022-08-23T18:50:43.451Z,26.91
2022-08-23T18:53:12.275Z,26.89
2022-08-23T18:55:41.712Z,26.88
2022-08-23T18:58:09.025Z,26.90
2022-08-23T19:00:38.275Z,26.87
2022-08-23T19:03:07.286Z,26.83
2022-08-23T19:05:42.058Z,26.82
2022-08-23T19:08:12.694Z,26.73
2022-08-23T19:10:43.831Z,26.68
2022-08-23T19:13:14.816Z,26.65
2022-08-23T19:15:42.181Z,26.63
2022-08-23T19:18:10.386Z,26.62
2022-08-23T19:20:38.366Z,26.61
2022-08-23T19:23:06.027Z,26.59
2022-08-23T19:25:36.603Z,26.60
2022-08-23T19:28:05.178Z,26.59
2022-08-23T19:30:32.527Z,26.58
2022-08-23T19:33:00.530Z,26.59
2022-08-23T19:35:29.826Z,26.58
2022-08-23T19:37:58.049Z,26.55
2022-08-23T19:40:25.601Z,26.55
2022-08-23T19:42:52.978Z,26.53
2022-08-23T19:45:21.495Z,26.53
2022-08-23T19:47:48.809Z,26.52
2022-08-23T19:50:16.428Z,26.52
2022-08-23T19:52:52.903Z,26.52
2022-08-23T19:55:21.094Z,26.52
2022-08-23T19:57:48.446Z,26.54
2022-08-23T20:00:19.374Z,26.53
2022-08-23T20:02:47.869Z,26.50
2022-08-23T20:05:16.517Z,26.47
2022-08-23T20:07:47.667Z,26.44
2022-08-23T20:10:15.818Z,26.39
2022-08-23T20:12:43.219Z,26.38
2022-08-23T20:15:12.920Z,26.36
2022-08-23T20:17:40.777Z,26.35
2022-08-23T20:20:10.643Z,26.34
2022-08-23T20:23:21.625Z,26.33
2022-08-23T20:25:50.369Z,26.34
2022-08-23T20:28:18.068Z,26.36
2022-08-23T20:30:48.076Z,26.36
2022-08-23T20:33:15.608Z,26.36
2022-08-23T20:35:46.009Z,26.36
2022-08-23T20:38:33.211Z,26.37
2022-08-23T20:41:00.691Z,26.43
2022-08-23T20:43:32.381Z,26.42
2022-08-23T20:45:59.966Z,26.39
2022-08-23T20:48:28.694Z,26.34
2022-08-23T20:51:02.365Z,26.31
2022-08-23T20:53:29.873Z,26.31
2022-08-23T20:55:59.213Z,26.34
2022-08-23T20:58:28.269Z,26.33
2022-08-23T21:00:55.614Z,26.34
2022-08-23T21:03:23.726Z,26.34
2022-08-23T21:05:50.941Z,26.34
2022-08-23T21:08:18.135Z,26.34
2022-08-23T21:10:45.416Z,26.33
2022-08-23T21:13:12.657Z,26.30
2022-08-23T21:15:39.849Z,26.29
2022-08-23T21:18:07.163Z,26.27
2022-08-23T21:20:34.341Z,26.25
2022-08-23T21:23:01.744Z,26.23
2022-08-23T21:25:29.115Z,26.21
2022-08-23T21:27:58.867Z,26.18
2022-08-23T21:30:28.362Z,26.16
2022-08-23T21:32:55.635Z,26.15
2022-08-23T21:35:22.867Z,26.12
2022-08-23T21:37:50.061Z,26.05
2022-08-23T21:40:17.523Z,25.93
2022-08-23T21:42:47.612Z,25.82
2022-08-23T21:45:14.891Z,25.75
2022-08-23T21:47:42.234Z,25.72
2022-08-23T21:50:10.028Z,25.70
2022-08-23T21:52:37.289Z,25.68
2022-08-23T21:55:06.195Z,25.66
2022-08-23T21:57:33.666Z,25.63
2022-08-23T22:00:12.259Z,25.60
2022-08-23T22:02:40.044Z,25.56
2022-08-23T22:05:08.303Z,25.52
2022-08-23T22:07:36.262Z,25.49
2022-08-23T22:10:09.176Z,25.47
2022-08-23T22:12:38.057Z,25.48
2022-08-23T22:15:07.864Z,25.46
2022-08-23T22:17:35.214Z,25.41
2022-08-23T22:20:05.676Z,25.32
2022-08-23T22:22:34.153Z,25.25
2022-08-23T22:25:02.283Z,25.22
2022-08-23T22:27:29.585Z,25.21
2022-08-23T22:29:57.499Z,25.24
2022-08-23T22:32:25.476Z,25.25
2022-08-23T22:34:53.374Z,25.28
2022-08-23T22:37:20.602Z,25.22
2022-08-23T22:39:47.825Z,25.05
2022-08-23T22:42:15.834Z,24.89
2022-08-23T22:44:42.986Z,24.73
2022-08-23T22:47:10.194Z,24.58
2022-08-23T22:49:38.661Z,24.49
2022-08-23T22:52:06.055Z,24.39
2022-08-23T22:54:33.135Z,24.26
2022-08-23T22:57:00.452Z,24.16
2022-08-23T22:59:32.357Z,24.07
2022-08-23T23:02:03.269Z,24.03
2022-08-23T23:04:32.202Z,23.92
2022-08-23T23:06:59.995Z,23.75
2022-08-23T23:09:27.205Z,23.57
2022-08-23T23:11:54.857Z,23.42
2022-08-23T23:14:22.525Z,23.28
2022-08-23T23:16:50.532Z,23.12
2022-08-23T23:19:36.948Z,23.02
2022-08-23T23:22:06.994Z,22.90
2022-08-23T23:24:38.028Z,22.84
2022-08-23T23:27:06.660Z,22.73
2022-08-23T23:29:34.372Z,22.57
2022-08-23T23:32:01.703Z,22.60
2022-08-23T23:34:29.146Z,22.58
2022-08-23T23:36:58.431Z,22.48
2022-08-23T23:39:27.163Z,22.46
2022-08-23T23:41:54.572Z,22.42
2022-08-23T23:44:26.024Z,22.40
2022-08-23T23:47:01.138Z,22.38
2022-08-23T23:49:32.111Z,22.40
2022-08-23T23:52:02.825Z,22.39
2022-08-23T23:54:31.169Z,22.36
2022-08-23T23:56:58.526Z,22.37
2022-08-23T23:59:26.333Z,22.30
